Icaraima, Brazil
Current Conditions -  °F | °C
As of 11:00 AM on Thursday 30 Oct 2014 (Local Time) from SBMG Reporting Station
Few Clouds Few Clouds  
Wind Chill: 90°   Ceiling: Unl
Heat Index: 90°   Visibility: 6mi
Dew Point: 61°   Wind: 12mph
Humidity: 38%   Direction: 320°NW
Pressure: 29.85"   Gusts: NA
Location:  23.4°S, 53.62°W
Report Text: SBMG 301300Z 32010KT 9999 FEW040 32/16 Q1011
Loading
Personal Weather Stations






























Interactive Weather Map
Tropical Storm Tracking
New forecast layout! Learn more

10-Day Weather Forecast

Advertisements
Track Severe Weather on mobile